Time;durP1;ratioP1;P1;durP2;ratioP2;P2;SDS_P1;SDS_P2;PMS_P1;PMS_P2;Temp;Humidity;BMP_temperature;BMP_pressure;BME280_temperature;BME280_humidity;BME280_pressure;Samples;Min_cycle;Max_cycle;Signal;HPM_P1;HPM_P2
2024/03/09 00:00:23;;;;;;;19.92;12.52;;;6.10;99.90;;;;;;5011692;28;20033;-48
2024/03/09 00:02:50;;;;;;;23.48;14.68;;;6.10;99.90;;;;;;5011197;28;20026;-50
2024/03/09 00:05:19;;;;;;;18.92;13.43;;;6.00;99.90;;;;;;5011048;28;20042;-52
2024/03/09 00:07:45;;;;;;;26.58;13.95;;;6.10;99.90;;;;;;5027533;28;20037;-50
2024/03/09 00:10:14;;;;;;;22.27;13.57;;;6.00;99.90;;;;;;5030666;28;20045;-51
2024/03/09 00:12:42;;;;;;;24.40;13.45;;;6.10;99.90;;;;;;5012598;28;20026;-48
2024/03/09 00:15:11;;;;;;;25.38;14.50;;;6.10;99.90;;;;;;5030473;28;20493;-50
2024/03/09 00:17:43;;;;;;;21.20;13.75;;;6.00;99.90;;;;;;5030769;28;20068;-47
2024/03/09 00:20:12;;;;;;;21.52;13.73;;;6.00;99.90;;;;;;5031905;28;20033;-50
2024/03/09 00:22:39;;;;;;;28.10;14.60;;;6.00;99.90;;;;;;5042917;22;20496;-50
2024/03/09 00:25:04;;;;;;;18.77;12.27;;;5.90;99.90;;;;;;5030865;28;20067;-52
2024/03/09 00:27:30;;;;;;;21.50;13.95;;;6.00;99.90;;;;;;5010957;28;20022;-48
2024/03/09 00:29:56;;;;;;;25.80;13.68;;;6.00;99.90;;;;;;4996453;28;20022;-53
2024/03/09 00:32:22;;;;;;;23.55;14.20;;;5.90;99.90;;;;;;5024552;28;20033;-51
2024/03/09 00:34:47;;;;;;;21.90;13.35;;;5.90;99.90;;;;;;5048623;28;20026;-51
2024/03/09 00:37:13;;;;;;;20.25;13.25;;;5.90;99.90;;;;;;5033238;28;20044;-49
2024/03/09 00:39:39;;;;;;;22.38;14.20;;;5.80;99.90;;;;;;5048405;28;20404;-53
2024/03/09 00:42:08;;;;;;;22.00;13.70;;;5.80;99.90;;;;;;5032559;28;20030;-48
2024/03/09 00:44:35;;;;;;;20.10;13.38;;;5.80;99.90;;;;;;5033073;28;20030;-54
2024/03/09 00:47:04;;;;;;;22.40;14.20;;;5.80;99.90;;;;;;5033143;28;20014;-52
2024/03/09 00:49:33;;;;;;;22.67;14.48;;;5.80;99.90;;;;;;5032930;28;20026;-53
2024/03/09 00:51:59;;;;;;;23.08;13.18;;;5.80;99.90;;;;;;5033013;28;20027;-49
2024/03/09 00:54:27;;;;;;;25.23;15.48;;;5.70;99.90;;;;;;5032861;28;20540;-53
2024/03/09 00:56:53;;;;;;;20.23;12.73;;;5.70;99.90;;;;;;5032916;28;20100;-49
2024/03/09 00:59:19;;;;;;;25.15;15.13;;;5.70;99.90;;;;;;5032386;28;20500;-50
2024/03/09 01:01:48;;;;;;;17.60;12.80;;;5.70;99.90;;;;;;5033057;28;20032;-51
2024/03/09 01:04:17;;;;;;;21.60;12.90;;;5.60;99.90;;;;;;5032947;28;20104;-49
2024/03/09 01:06:42;;;;;;;23.33;14.18;;;5.60;99.90;;;;;;5032394;28;20022;-50
2024/03/09 01:09:09;;;;;;;21.65;13.52;;;5.60;99.90;;;;;;5032553;28;20108;-50
2024/03/09 01:11:35;;;;;;;25.40;14.20;;;5.60;99.90;;;;;;5048615;28;20470;-52
2024/03/09 01:14:00;;;;;;;25.10;14.15;;;5.50;99.90;;;;;;5032672;28;20053;-49
2024/03/09 01:16:27;;;;;;;24.05;15.45;;;5.40;99.90;;;;;;5032949;28;20037;-51
2024/03/09 01:18:52;;;;;;;29.67;14.77;;;5.40;99.90;;;;;;5033161;28;20065;-52
2024/03/09 01:21:19;;;;;;;21.63;14.05;;;5.40;99.90;;;;;;5033397;28;20501;-52
2024/03/09 01:23:44;;;;;;;21.92;13.65;;;5.30;99.90;;;;;;5032517;28;20412;-51
2024/03/09 01:26:11;;;;;;;20.83;13.65;;;5.30;99.90;;;;;;5048277;28;20021;-49
2024/03/09 01:28:37;;;;;;;23.70;14.10;;;5.30;99.90;;;;;;5032389;28;20029;-52
2024/03/09 01:31:03;;;;;;;26.50;17.58;;;;;;;;;;5047649;28;20018;-51
2024/03/09 01:33:29;;;;;;;26.88;14.35;;;5.20;99.90;;;;;;5031931;28;20025;-49
2024/03/09 01:35:54;;;;;;;23.70;14.48;;;5.10;99.90;;;;;;5032181;28;20100;-49
2024/03/09 01:38:20;;;;;;;24.70;15.05;;;5.10;99.90;;;;;;5047208;28;20428;-54
2024/03/09 01:40:46;;;;;;;21.42;13.82;;;5.10;99.90;;;;;;5031894;28;20372;-49
2024/03/09 01:43:16;;;;;;;24.33;14.75;;;5.10;99.90;;;;;;5031660;28;20105;-52
2024/03/09 01:45:44;;;;;;;26.90;15.43;;;5.10;99.90;;;;;;5031316;28;20093;-54
2024/03/09 01:48:11;;;;;;;23.10;14.40;;;5.20;99.90;;;;;;5031508;28;20096;-55
2024/03/09 01:50:37;;;;;;;22.73;13.45;;;5.20;99.90;;;;;;5031636;28;20021;-50
2024/03/09 01:53:03;;;;;;;23.88;14.00;;;5.10;99.90;;;;;;5030507;28;20030;-51
2024/03/09 01:55:29;;;;;;;24.13;14.50;;;5.10;99.90;;;;;;5030172;28;20029;-54
2024/03/09 01:57:54;;;;;;;22.50;14.13;;;5.20;99.90;;;;;;5031455;28;20057;-51
2024/03/09 02:00:20;;;;;;;22.25;14.27;;;5.10;99.90;;;;;;5031367;28;20063;-50
2024/03/09 02:02:46;;;;;;;25.23;15.88;;;5.00;99.90;;;;;;5031288;28;20537;-52
2024/03/09 02:05:12;;;;;;;22.75;14.38;;;5.00;99.90;;;;;;5030900;28;20466;-51
2024/03/09 02:07:39;;;;;;;22.70;14.65;;;5.10;99.90;;;;;;5031336;28;20079;-50
2024/03/09 02:10:05;;;;;;;31.45;15.55;;;5.10;99.90;;;;;;5031231;28;20039;-49
2024/03/09 02:12:31;;;;;;;22.50;13.95;;;5.00;99.90;;;;;;5046684;28;20109;-51
2024/03/09 02:14:57;;;;;;;22.73;15.20;;;5.00;99.90;;;;;;5031215;28;20463;-52
2024/03/09 02:17:24;;;;;;;27.00;15.27;;;5.00;99.90;;;;;;5031035;28;20060;-56
2024/03/09 02:19:49;;;;;;;24.90;14.90;;;5.00;99.90;;;;;;5030961;28;20026;-53
2024/03/09 02:22:17;;;;;;;23.05;14.00;;;5.00;99.90;;;;;;5030976;28;20026;-55
2024/03/09 02:24:52;;;;;;;25.27;15.13;;;5.00;99.90;;;;;;5030921;28;20036;-52
2024/03/09 02:27:20;;;;;;;27.58;15.68;;;5.00;99.90;;;;;;5030740;28;20021;-52
2024/03/09 02:29:46;;;;;;;22.67;14.88;;;5.00;99.90;;;;;;5030943;28;20021;-56
2024/03/09 02:32:12;;;;;;;25.58;15.55;;;5.00;99.90;;;;;;5046517;28;20048;-54
2024/03/09 02:34:37;;;;;;;26.38;15.63;;;5.40;99.90;;;;;;5031223;28;20033;-51
2024/03/09 02:37:03;;;;;;;24.80;14.65;;;5.00;99.90;;;;;;5031336;28;20104;-50
2024/03/09 02:39:30;;;;;;;23.60;15.02;;;5.00;99.90;;;;;;5031511;28;20076;-53
2024/03/09 02:41:56;;;;;;;27.27;16.02;;;5.00;99.90;;;;;;5030969;28;20045;-52
2024/03/09 02:44:22;;;;;;;26.00;15.45;;;4.90;99.90;;;;;;5030932;28;20320;-50
2024/03/09 02:46:47;;;;;;;24.80;14.65;;;4.80;99.90;;;;;;5030779;28;20097;-52
2024/03/09 02:49:13;;;;;;;26.65;14.80;;;4.80;99.90;;;;;;5030789;28;20030;-49
2024/03/09 02:51:38;;;;;;;29.33;13.68;;;4.70;99.90;;;;;;5030720;28;20039;-52
2024/03/09 02:54:04;;;;;;;24.58;14.82;;;4.70;99.90;;;;;;5031072;28;20037;-52
2024/03/09 02:56:30;;;;;;;28.33;16.27;;;4.80;99.90;;;;;;5030681;28;20124;-49
2024/03/09 02:58:56;;;;;;;26.20;15.50;;;4.80;99.90;;;;;;5030756;28;20382;-50
2024/03/09 03:01:22;;;;;;;28.00;15.10;;;4.80;99.90;;;;;;5030814;28;20025;-51
2024/03/09 03:03:58;;;;;;;24.90;14.60;;;4.80;99.90;;;;;;5045948;28;20022;-52
2024/03/09 03:06:24;;;;;;;24.10;14.80;;;4.80;99.90;;;;;;5034696;28;20018;-49
2024/03/09 03:08:55;;;;;;;23.92;14.00;;;4.80;99.90;;;;;;5049997;28;20469;-52
2024/03/09 03:11:21;;;;;;;29.63;15.60;;;4.80;99.90;;;;;;5034818;28;20029;-52
2024/03/09 03:13:48;;;;;;;24.52;15.20;;;4.70;99.90;;;;;;5034846;28;20029;-51
2024/03/09 03:16:28;;;;;;;24.63;15.10;;;4.70;99.90;;;;;;5035097;28;20024;-49
2024/03/09 03:18:58;;;;;;;23.35;14.75;;;4.60;99.90;;;;;;5035841;28;20512;-52
2024/03/09 03:21:25;;;;;;;25.88;15.15;;;4.60;99.90;;;;;;5035241;28;20021;-52
2024/03/09 03:23:51;;;;;;;25.70;16.05;;;4.50;99.90;;;;;;5035015;28;20091;-54
2024/03/09 03:26:19;;;;;;;23.42;14.77;;;4.60;99.90;;;;;;5036105;28;20057;-52
2024/03/09 03:28:47;;;;;;;25.45;15.07;;;4.60;99.90;;;;;;5033259;28;20022;-51
2024/03/09 03:31:17;;;;;;;23.85;14.90;;;4.60;99.90;;;;;;5034500;28;20032;-50
2024/03/09 03:33:43;;;;;;;25.25;14.77;;;4.60;99.90;;;;;;5034374;28;20017;-51
2024/03/09 03:36:11;;;;;;;27.08;15.60;;;4.50;99.90;;;;;;5034286;28;20401;-51
2024/03/09 03:38:36;;;;;;;24.73;15.65;;;4.60;99.90;;;;;;5033916;28;20191;-55
2024/03/09 03:41:07;;;;;;;26.90;16.90;;;4.60;99.90;;;;;;5033870;28;20121;-50
2024/03/09 03:43:34;;;;;;;26.52;15.02;;;4.50;99.90;;;;;;5033671;28;20028;-48
2024/03/09 03:46:03;;;;;;;25.98;16.23;;;4.50;99.90;;;;;;5033929;28;20048;-51
2024/03/09 03:48:30;;;;;;;25.38;14.95;;;4.50;99.90;;;;;;5049513;28;20025;-48
2024/03/09 03:50:56;;;;;;;25.58;15.05;;;4.50;99.90;;;;;;5034260;28;20026;-53
2024/03/09 03:53:22;;;;;;;23.30;13.88;;;4.50;99.90;;;;;;5049317;28;20373;-48
2024/03/09 03:55:47;;;;;;;25.48;14.95;;;4.50;99.90;;;;;;5049316;28;20036;-51
2024/03/09 03:58:17;;;;;;;25.77;15.57;;;4.50;99.90;;;;;;5033853;28;20508;-53
2024/03/09 04:00:49;;;;;;;26.35;16.05;;;4.60;99.90;;;;;;5034040;28;20054;-54
2024/03/09 04:03:16;;;;;;;49.38;16.05;;;4.60;99.90;;;;;;5033786;28;20505;-52
2024/03/09 04:05:48;;;;;;;22.60;15.15;;;4.60;99.90;;;;;;5033693;28;20057;-55
2024/03/09 04:08:13;;;;;;;25.52;14.05;;;4.70;99.90;;;;;;5033730;28;20056;-52
2024/03/09 04:10:39;;;;;;;26.23;15.15;;;4.60;99.90;;;;;;5033940;28;20057;-48
2024/03/09 04:13:07;;;;;;;25.30;14.45;;;4.60;99.90;;;;;;5033730;28;20401;-48
2024/03/09 04:15:33;;;;;;;24.73;15.30;;;4.60;99.90;;;;;;5032757;28;20440;-50
2024/03/09 04:18:02;;;;;;;26.92;14.98;;;4.60;99.90;;;;;;5032696;28;20033;-52
2024/03/09 04:20:33;;;;;;;26.33;14.32;;;4.60;99.90;;;;;;5048843;28;20193;-52
2024/03/09 04:23:02;;;;;;;26.85;15.40;;;4.60;99.90;;;;;;5033210;28;20045;-50
2024/03/09 04:25:28;;;;;;;22.85;13.70;;;4.60;99.90;;;;;;5033302;28;20028;-52
2024/03/09 04:27:55;;;;;;;29.30;15.85;;;4.60;99.90;;;;;;5033240;28;20104;-52
2024/03/09 04:30:23;;;;;;;30.67;16.02;;;4.60;99.90;;;;;;5033408;28;20100;-52
2024/03/09 04:32:49;;;;;;;24.50;14.50;;;4.50;99.90;;;;;;5033256;28;20113;-50
2024/03/09 04:35:14;;;;;;;27.90;15.25;;;4.50;99.90;;;;;;5048619;28;20120;-53
2024/03/09 04:37:41;;;;;;;25.48;15.43;;;4.50;99.90;;;;;;5033370;28;20040;-54
2024/03/09 04:40:14;;;;;;;26.65;14.93;;;4.50;99.90;;;;;;5033253;28;20036;-54
2024/03/09 04:42:48;;;;;;;27.08;15.77;;;4.50;99.90;;;;;;5033395;28;20030;-55
2024/03/09 04:45:19;;;;;;;26.33;14.10;;;4.40;99.90;;;;;;5033340;28;20397;-47
2024/03/09 04:47:45;;;;;;;29.60;15.50;;;4.40;99.90;;;;;;5032900;28;20028;-52
2024/03/09 04:50:11;;;;;;;25.08;14.88;;;4.40;99.90;;;;;;5048364;28;20033;-52
2024/03/09 04:52:37;;;;;;;25.45;14.85;;;4.30;99.90;;;;;;5048310;28;20066;-54
2024/03/09 04:55:05;;;;;;;23.13;14.68;;;4.40;99.90;;;;;;5032967;28;20503;-54
2024/03/09 04:57:38;;;;;;;23.17;14.25;;;4.30;99.90;;;;;;5032869;28;20091;-50
2024/03/09 05:00:06;;;;;;;24.58;14.02;;;4.30;99.90;;;;;;5032881;28;20053;-52
2024/03/09 05:02:32;;;;;;;24.00;14.88;;;4.30;99.90;;;;;;5032716;28;20060;-49
2024/03/09 05:04:58;;;;;;;27.63;14.77;;;4.30;99.90;;;;;;5032800;28;20049;-50
2024/03/09 05:07:24;;;;;;;25.40;15.85;;;4.30;99.90;;;;;;5032722;28;20045;-49
2024/03/09 05:09:49;;;;;;;29.20;16.17;;;4.30;99.90;;;;;;5031378;28;20488;-53
2024/03/09 05:12:15;;;;;;;22.58;14.68;;;4.30;99.90;;;;;;5032640;28;20022;-50
2024/03/09 05:14:40;;;;;;;24.60;15.15;;;4.30;99.90;;;;;;5032984;28;20104;-48
2024/03/09 05:17:05;;;;;;;27.48;15.60;;;4.30;99.90;;;;;;5032985;28;20025;-49
2024/03/09 05:19:31;;;;;;;25.65;15.32;;;4.30;99.90;;;;;;5032076;28;20029;-50
2024/03/09 05:21:57;;;;;;;22.48;14.00;;;4.30;99.90;;;;;;5032632;28;20025;-48
2024/03/09 05:24:23;;;;;;;23.45;14.95;;;4.30;99.90;;;;;;5032287;28;20030;-49
2024/03/09 05:26:48;;;;;;;28.90;15.32;;;4.30;99.90;;;;;;5032018;28;20030;-49
2024/03/09 05:29:14;;;;;;;27.83;14.40;;;4.30;99.90;;;;;;5032165;28;20030;-48
2024/03/09 05:31:39;;;;;;;25.38;14.23;;;4.20;99.90;;;;;;5032488;28;20018;-49
2024/03/09 05:34:07;;;;;;;24.48;14.30;;;4.30;99.90;;;;;;5032212;28;20032;-50
2024/03/09 05:36:32;;;;;;;27.20;14.70;;;4.30;99.90;;;;;;5032309;28;20389;-48
2024/03/09 05:38:58;;;;;;;21.70;14.13;;;4.20;99.90;;;;;;5032289;28;20081;-49
2024/03/09 05:41:24;;;;;;;24.27;13.98;;;4.20;99.90;;;;;;5032024;28;20028;-51
2024/03/09 05:43:49;;;;;;;26.90;14.43;;;4.20;99.90;;;;;;5031882;28;20034;-49
2024/03/09 05:46:16;;;;;;;25.25;14.65;;;4.20;99.90;;;;;;5032083;28;20017;-49
2024/03/09 05:48:49;;;;;;;24.98;15.05;;;4.20;99.90;;;;;;5031918;28;20029;-49
2024/03/09 05:51:14;;;;;;;25.67;14.35;;;4.20;99.90;;;;;;5032157;28;20036;-49
2024/03/09 05:53:41;;;;;;;24.92;14.40;;;4.20;99.90;;;;;;5047064;28;20108;-51
2024/03/09 05:56:07;;;;;;;22.00;13.75;;;4.10;99.90;;;;;;5047148;28;20393;-52
2024/03/09 05:58:33;;;;;;;24.85;15.48;;;4.20;99.90;;;;;;5031812;28;20521;-50
2024/03/09 06:00:59;;;;;;;25.05;16.02;;;4.20;99.90;;;;;;5031903;28;20108;-50
2024/03/09 06:03:28;;;;;;;22.92;13.15;;;4.20;99.90;;;;;;5031712;28;20013;-54
2024/03/09 06:05:54;;;;;;;25.75;15.45;;;4.10;99.90;;;;;;5031800;28;20558;-48
2024/03/09 06:08:19;;;;;;;26.85;13.63;;;4.10;99.90;;;;;;5047333;28;20025;-52
2024/03/09 06:10:48;;;;;;;27.02;14.73;;;4.10;99.90;;;;;;5031763;28;20036;-50
2024/03/09 06:13:17;;;;;;;23.80;15.85;;;4.10;99.90;;;;;;5031548;28;20014;-55
2024/03/09 06:15:43;;;;;;;24.77;13.48;;;4.00;99.90;;;;;;5031551;28;20030;-50
2024/03/09 06:18:09;;;;;;;24.05;14.45;;;4.00;99.90;;;;;;5031442;28;20049;-49
2024/03/09 06:20:37;;;;;;;23.75;14.77;;;4.00;99.90;;;;;;5031747;28;20076;-49
2024/03/09 06:23:03;;;;;;;26.70;15.25;;;4.00;99.90;;;;;;5032211;28;20520;-50
2024/03/09 06:25:29;;;;;;;27.77;16.15;;;4.00;99.90;;;;;;5031186;28;20535;-49
2024/03/09 06:27:55;;;;;;;27.70;14.65;;;4.00;99.90;;;;;;5031384;28;20100;-53
2024/03/09 06:30:22;;;;;;;23.98;13.73;;;4.10;99.90;;;;;;5031301;28;20023;-52
2024/03/09 06:32:49;;;;;;;24.63;14.82;;;4.00;99.90;;;;;;5031286;28;20025;-55
2024/03/09 06:35:25;;;;;;;25.45;15.02;;;4.00;99.90;;;;;;5031281;28;20120;-50
2024/03/09 06:38:05;;;;;;;26.90;14.73;;;4.00;99.90;;;;;;5031885;28;20075;-49
2024/03/09 06:40:33;;;;;;;24.33;14.20;;;4.00;99.90;;;;;;5031068;28;20034;-51
2024/03/09 06:42:59;;;;;;;26.23;14.07;;;4.10;99.90;;;;;;5031568;28;20029;-52
2024/03/09 06:45:26;;;;;;;23.60;14.70;;;4.00;99.90;;;;;;5031212;28;20045;-48
2024/03/09 06:47:52;;;;;;;23.90;14.45;;;4.00;99.90;;;;;;5031313;28;20045;-48
2024/03/09 06:50:18;;;;;;;26.52;14.18;;;4.10;99.90;;;;;;5031092;28;20033;-48
2024/03/09 06:52:43;;;;;;;31.13;15.35;;;4.00;99.90;;;;;;5031514;28;20032;-50
2024/03/09 06:55:09;;;;;;;22.65;13.98;;;4.00;99.90;;;;;;5031207;28;20104;-54
2024/03/09 06:57:35;;;;;;;21.80;13.70;;;4.00;99.90;;;;;;5046044;28;20564;-50
2024/03/09 07:00:11;;;;;;;22.73;13.77;;;4.00;99.90;;;;;;5031275;28;20032;-52
2024/03/09 07:02:37;;;;;;;28.27;14.98;;;4.10;99.90;;;;;;5031146;28;20034;-54
2024/03/09 07:05:04;;;;;;;18.90;12.95;;;4.20;99.90;;;;;;5031070;28;20113;-49
2024/03/09 07:07:30;;;;;;;21.35;13.73;;;4.20;99.90;;;;;;5046361;28;20026;-51
2024/03/09 07:09:56;;;;;;;24.90;14.95;;;4.20;99.90;;;;;;5029468;28;20018;-52
2024/03/09 07:12:22;;;;;;;25.73;14.43;;;4.30;99.90;;;;;;5030945;28;20033;-53
2024/03/09 07:14:48;;;;;;;23.13;13.95;;;4.30;99.90;;;;;;5031333;28;20026;-54
2024/03/09 07:17:17;;;;;;;23.23;13.38;;;4.30;99.90;;;;;;5031267;28;20029;-54
2024/03/09 07:19:45;;;;;;;30.10;13.20;;;4.40;99.90;;;;;;5046156;28;20412;-47
2024/03/09 07:22:13;;;;;;;24.35;13.77;;;4.40;99.90;;;;;;5046006;28;20116;-47
2024/03/09 07:24:42;;;;;;;23.02;14.30;;;4.40;99.90;;;;;;5030714;28;20017;-51
2024/03/09 07:27:08;;;;;;;22.15;13.73;;;4.50;99.90;;;;;;5031267;28;20196;-51
2024/03/09 07:29:35;;;;;;;26.48;15.00;;;4.60;99.90;;;;;;5030776;28;20389;-50
2024/03/09 07:32:00;;;;;;;25.30;13.38;;;4.70;99.90;;;;;;5045980;28;20057;-53
2024/03/09 07:34:28;;;;;;;23.60;14.40;;;4.80;99.90;;;;;;5030326;28;20021;-50
2024/03/09 07:36:55;;;;;;;20.35;13.23;;;4.80;99.90;;;;;;5030668;28;20045;-48
2024/03/09 07:39:23;;;;;;;24.23;13.45;;;4.90;99.90;;;;;;5030620;28;20022;-49
2024/03/09 07:41:48;;;;;;;21.00;13.00;;;5.30;99.90;;;;;;5030825;28;20117;-47
2024/03/09 07:44:14;;;;;;;21.80;12.80;;;5.50;99.90;;;;;;5045819;28;20053;-47
2024/03/09 07:46:39;;;;;;;23.88;14.68;;;5.80;99.90;;;;;;5030743;28;20025;-48
2024/03/09 07:49:05;;;;;;;23.90;14.32;;;6.10;99.90;;;;;;5030658;28;20144;-46
2024/03/09 07:51:30;;;;;;;23.38;11.93;;;6.30;99.90;;;;;;5031723;28;20032;-48
2024/03/09 07:53:58;;;;;;;22.17;12.73;;;6.20;99.90;;;;;;5034732;28;20060;-47
2024/03/09 07:56:24;;;;;;;23.00;14.68;;;6.40;99.90;;;;;;5034530;28;20021;-51
2024/03/09 07:58:50;;;;;;;21.90;13.82;;;6.40;99.90;;;;;;5035869;28;20446;-53
2024/03/09 08:01:18;;;;;;;21.70;13.05;;;6.20;99.90;;;;;;5035188;28;20032;-53
2024/03/09 08:03:45;;;;;;;22.85;15.05;;;6.20;99.90;;;;;;5034132;28;20022;-52
2024/03/09 08:06:11;;;;;;;23.40;13.00;;;6.10;99.90;;;;;;5035008;28;20083;-50
2024/03/09 08:08:37;;;;;;;23.70;14.30;;;6.20;99.90;;;;;;5033784;28;20291;-46
2024/03/09 08:11:02;;;;;;;24.38;14.00;;;6.00;99.90;;;;;;5033896;28;20036;-48
2024/03/09 08:13:28;;;;;;;31.80;14.43;;;6.10;99.90;;;;;;5033559;28;20028;-52
2024/03/09 08:15:54;;;;;;;21.73;14.25;;;6.00;99.90;;;;;;5034319;28;20035;-49
2024/03/09 08:18:21;;;;;;;22.42;13.60;;;6.20;99.90;;;;;;5033253;28;20622;-49
2024/03/09 08:20:48;;;;;;;25.98;15.05;;;6.10;99.90;;;;;;5033674;28;20025;-47
2024/03/09 08:23:13;;;;;;;19.48;12.18;;;6.10;99.90;;;;;;5033675;28;20033;-49
2024/03/09 08:25:39;;;;;;;24.88;14.70;;;6.10;99.90;;;;;;5033048;28;20037;-52
2024/03/09 08:28:05;;;;;;;24.42;13.82;;;6.00;99.90;;;;;;5033175;28;20030;-49
2024/03/09 08:30:31;;;;;;;21.55;13.48;;;6.00;99.90;;;;;;5033519;28;20021;-50
2024/03/09 08:32:59;;;;;;;23.77;13.05;;;6.10;99.90;;;;;;5031757;28;20022;-44
2024/03/09 08:35:27;;;;;;;20.70;13.40;;;6.10;99.90;;;;;;5032722;28;20025;-49
2024/03/09 08:37:53;;;;;;;22.85;14.80;;;6.10;99.90;;;;;;5014905;28;20052;-46
2024/03/09 08:40:22;;;;;;;21.17;13.32;;;6.00;99.90;;;;;;5024252;28;20108;-50
2024/03/09 08:42:51;;;;;;;24.45;13.70;;;6.20;99.90;;;;;;5033179;28;20033;-47
2024/03/09 08:45:18;;;;;;;24.05;13.48;;;6.20;99.90;;;;;;5033167;28;20021;-43
2024/03/09 08:47:44;;;;;;;21.10;13.40;;;6.30;99.90;;;;;;5033167;28;20053;-49
2024/03/09 08:50:12;;;;;;;21.83;14.43;;;6.50;99.90;;;;;;5033001;28;20017;-49
2024/03/09 08:52:39;;;;;;;21.33;13.90;;;6.70;99.90;;;;;;5032984;28;20022;-48
2024/03/09 08:55:12;;;;;;;21.17;13.90;;;6.80;99.90;;;;;;5031810;28;20048;-45
2024/03/09 08:57:39;;;;;;;21.85;12.85;;;6.90;99.90;;;;;;5032929;28;20100;-52
2024/03/09 09:00:06;;;;;;;22.15;13.48;;;6.90;99.90;;;;;;5032933;28;20029;-44
2024/03/09 09:02:32;;;;;;;22.92;13.43;;;6.80;99.90;;;;;;5032470;28;20021;-49
2024/03/09 09:04:58;;;;;;;24.63;13.55;;;6.90;99.90;;;;;;5033115;28;20026;-50
2024/03/09 09:07:25;;;;;;;25.02;14.50;;;7.00;99.90;;;;;;5032934;28;20045;-47
2024/03/09 09:09:51;;;;;;;22.77;13.45;;;7.00;99.90;;;;;;5031563;28;20392;-46
2024/03/09 09:12:20;;;;;;;19.92;13.13;;;7.10;99.90;;;;;;5029695;28;20408;-49
2024/03/09 09:14:45;;;;;;;21.95;13.50;;;7.10;99.90;;;;;;5017811;28;20085;-50
2024/03/09 09:17:11;;;;;;;23.10;15.07;;;7.20;99.90;;;;;;5028638;28;20025;-51
2024/03/09 09:19:38;;;;;;;24.45;14.35;;;7.20;99.90;;;;;;5030491;28;20443;-47
2024/03/09 09:22:07;;;;;;;21.92;13.95;;;7.70;99.90;;;;;;5030239;28;20135;-58
2024/03/09 09:24:33;;;;;;;20.67;13.20;;;8.20;99.90;;;;;;5030635;28;20112;-54
2024/03/09 09:26:59;;;;;;;17.80;12.13;;;9.60;99.90;;;;;;5032733;28;20021;-55
2024/03/09 09:29:28;;;;;;;18.02;11.70;;;10.50;99.90;;;;;;5033529;28;20030;-50
2024/03/09 09:32:00;;;;;;;19.08;12.30;;;10.50;99.90;;;;;;5032525;28;20025;-55
2024/03/09 09:34:28;;;;;;;21.52;14.30;;;11.40;99.90;;;;;;5032674;28;20491;-56
2024/03/09 09:36:53;;;;;;;18.88;12.77;;;11.60;99.90;;;;;;5031844;28;20113;-51
2024/03/09 09:39:24;;;;;;;18.15;12.15;;;12.20;98.50;;;;;;5027309;28;20025;-49
2024/03/09 09:41:56;;;;;;;16.90;11.95;;;12.20;98.90;;;;;;5014402;28;20084;-50
2024/03/09 09:44:22;;;;;;;18.90;12.40;;;12.00;99.00;;;;;;5029590;28;20511;-53
2024/03/09 09:46:48;;;;;;;23.38;12.02;;;12.30;99.10;;;;;;5032019;28;20061;-46
2024/03/09 09:49:14;;;;;;;17.75;11.93;;;12.50;98.40;;;;;;5031242;28;20045;-49
2024/03/09 09:51:41;;;;;;;18.17;12.27;;;12.70;98.40;;;;;;5032515;28;20028;-51
2024/03/09 09:54:08;;;;;;;18.45;12.85;;;13.20;98.10;;;;;;5032014;28;20041;-51
2024/03/09 09:56:34;;;;;;;17.90;11.77;;;13.30;97.10;;;;;;5032662;28;20021;-48
2024/03/09 09:59:01;;;;;;;20.17;12.63;;;13.40;96.80;;;;;;5032645;28;20060;-53
2024/03/09 10:01:26;;;;;;;22.63;13.40;;;13.00;97.30;;;;;;5032464;28;20037;-50
2024/03/09 10:03:52;;;;;;;19.80;13.00;;;12.80;97.30;;;;;;5030152;28;20029;-50
2024/03/09 10:06:20;;;;;;;20.42;13.90;;;12.40;98.10;;;;;;5030975;28;20509;-46
2024/03/09 10:08:53;;;;;;;22.40;14.43;;;11.90;98.70;;;;;;5030832;28;20105;-50
2024/03/09 10:11:24;;;;;;;20.50;14.52;;;11.50;99.30;;;;;;5031918;28;20112;-45
2024/03/09 10:14:00;;;;;;;26.42;14.93;;;11.60;99.90;;;;;;5030622;28;20060;-45
2024/03/09 10:16:27;;;;;;;18.40;12.43;;;11.70;99.70;;;;;;5032136;28;20096;-45
2024/03/09 10:18:55;;;;;;;19.88;13.02;;;11.70;99.90;;;;;;5032537;28;20024;-48
2024/03/09 10:21:37;;;;;;;19.98;13.07;;;11.50;99.60;;;;;;5031501;28;20026;-46
2024/03/09 10:24:09;;;;;;;21.25;13.43;;;11.40;99.90;;;;;;5021864;28;20033;-49
2024/03/09 10:26:36;;;;;;;23.17;13.00;;;11.00;99.90;;;;;;5031805;28;20031;-52
2024/03/09 10:29:04;;;;;;;17.50;13.05;;;11.00;99.90;;;;;;5031053;28;20022;-50
2024/03/09 10:31:30;;;;;;;22.45;13.65;;;11.20;99.90;;;;;;5031547;28;20024;-49
2024/03/09 10:33:57;;;;;;;21.15;13.18;;;11.20;99.90;;;;;;5030896;28;20021;-47
2024/03/09 10:36:24;;;;;;;33.20;21.60;;;11.00;99.90;;;;;;5029823;28;20504;-46
2024/03/09 10:38:57;;;;;;;18.95;13.23;;;11.00;99.90;;;;;;5030532;28;20489;-50
2024/03/09 10:41:23;;;;;;;22.17;13.77;;;11.00;99.90;;;;;;5031087;28;20017;-47
2024/03/09 10:43:52;;;;;;;23.02;13.73;;;11.10;99.90;;;;;;5030783;28;20017;-47
2024/03/09 10:46:22;;;;;;;27.45;13.88;;;11.20;99.90;;;;;;5032460;28;20033;-44
2024/03/09 10:48:51;;;;;;;20.27;13.40;;;11.30;99.90;;;;;;5050857;28;20036;-49
2024/03/09 10:51:44;;;;;;;21.45;13.18;;;11.20;99.90;;;;;;5031189;28;20025;-47
2024/03/09 10:54:38;;;;;;;22.98;13.32;;;11.20;99.90;;;;;;5030130;28;20052;-45
2024/03/09 10:57:10;;;;;;;20.98;13.60;;;11.40;99.90;;;;;;5013978;28;20118;-52
2024/03/09 10:59:38;;;;;;;22.10;14.05;;;11.40;99.90;;;;;;5031052;28;20543;-49
2024/03/09 11:02:07;;;;;;;21.73;13.27;;;11.50;99.90;;;;;;5031043;28;20026;-50
2024/03/09 11:04:34;;;;;;;19.95;12.77;;;11.30;99.90;;;;;;5030703;28;20025;-46
2024/03/09 11:07:01;;;;;;;19.98;13.38;;;11.30;99.90;;;;;;5030869;28;20021;-51
2024/03/09 11:09:30;;;;;;;19.85;12.98;;;11.20;99.90;;;;;;5030251;28;20397;-49
2024/03/09 11:12:00;;;;;;;19.73;14.43;;;11.20;99.90;;;;;;5031043;28;20435;-45
2024/03/09 11:14:26;;;;;;;20.02;13.70;;;11.10;99.90;;;;;;5029561;28;20516;-50
2024/03/09 11:16:53;;;;;;;18.90;12.90;;;11.10;99.90;;;;;;5030450;28;20056;-49
2024/03/09 11:19:20;;;;;;;20.67;13.50;;;11.10;99.90;;;;;;5031282;28;20418;-43
2024/03/09 11:21:51;;;;;;;19.65;14.35;;;11.80;99.90;;;;;;5031233;28;20108;-47
2024/03/09 11:24:18;;;;;;;22.67;13.48;;;11.00;99.90;;;;;;5030368;28;20523;-46
2024/03/09 11:26:54;;;;;;;22.85;13.68;;;11.00;99.90;;;;;;5032404;28;20026;-49
2024/03/09 11:29:22;;;;;;;25.15;17.63;;;11.20;99.90;;;;;;5034468;28;20025;-51
2024/03/09 11:31:55;;;;;;;20.48;13.75;;;11.20;99.90;;;;;;5035013;28;20160;-46
2024/03/09 11:34:21;;;;;;;22.13;13.68;;;11.20;99.90;;;;;;5034400;28;20026;-49
2024/03/09 11:36:58;;;;;;;19.15;13.57;;;11.20;99.90;;;;;;5034240;28;20439;-47
2024/03/09 11:39:30;;;;;;;20.42;13.18;;;11.20;99.90;;;;;;5034508;28;20397;-50
2024/03/09 11:42:00;;;;;;;20.65;14.13;;;11.30;99.90;;;;;;5034703;28;20541;-46
2024/03/09 11:44:27;;;;;;;21.38;14.43;;;11.20;99.90;;;;;;5034252;28;20028;-47
2024/03/09 11:46:55;;;;;;;19.25;13.25;;;11.20;99.90;;;;;;5033895;28;20091;-50
2024/03/09 11:49:27;;;;;;;17.88;12.90;;;11.10;99.90;;;;;;5034523;28;20017;-46
2024/03/09 11:51:56;;;;;;;20.25;12.90;;;11.20;99.90;;;;;;5034013;28;20097;-45
2024/03/09 11:54:23;;;;;;;19.23;12.95;;;11.40;99.90;;;;;;5033657;28;20056;-47
2024/03/09 11:56:51;;;;;;;20.05;13.30;;;11.40;99.90;;;;;;5032715;28;20026;-42
2024/03/09 11:59:17;;;;;;;21.30;13.75;;;11.50;99.90;;;;;;5033919;28;20024;-52
2024/03/09 12:01:43;;;;;;;20.98;13.90;;;11.40;99.90;;;;;;5032159;28;20029;-47
2024/03/09 12:04:10;;;;;;;23.63;13.88;;;11.50;99.90;;;;;;5033755;28;20385;-49
2024/03/09 12:06:40;;;;;;;23.50;14.38;;;11.50;99.90;;;;;;5034125;28;20029;-49
2024/03/09 12:09:07;;;;;;;19.30;13.02;;;11.40;99.90;;;;;;5034233;28;20037;-45
2024/03/09 12:11:34;;;;;;;22.77;12.85;;;11.50;99.90;;;;;;5034903;28;20021;-52
2024/03/09 12:14:00;;;;;;;16.95;12.20;;;11.60;99.90;;;;;;5033865;28;20025;-45
2024/03/09 12:16:28;;;;;;;19.70;13.70;;;11.60;99.90;;;;;;5033819;28;20068;-47
2024/03/09 12:18:59;;;;;;;21.65;13.43;;;11.60;99.90;;;;;;5031632;28;20029;-47
2024/03/09 12:21:26;;;;;;;20.77;13.63;;;11.60;99.90;;;;;;5019978;28;20033;-50
2024/03/09 12:23:54;;;;;;;21.85;13.88;;;11.60;99.90;;;;;;5063975;23;20626;-48
2024/03/09 12:26:23;;;;;;;19.73;13.43;;;11.70;99.90;;;;;;5063478;28;20112;-50
2024/03/09 12:28:49;;;;;;;19.50;14.07;;;11.70;99.90;;;;;;5066217;28;20090;-52
2024/03/09 12:31:15;;;;;;;18.52;13.32;;;11.70;99.90;;;;;;5073380;28;20123;-51
2024/03/09 12:33:43;;;;;;;20.90;13.02;;;11.70;99.90;;;;;;5072690;28;20031;-50
2024/03/09 12:36:15;;;;;;;20.25;12.40;;;11.80;99.90;;;;;;5053715;28;20451;-52